N815DG KCMH-KOSU
Flight info
| Callsign | N815DG |
|---|---|
| Flight time | N/A |
| Altitude | VFR |
| Route | |
| Aircraft | PC12/L-DOV/C |
Departure
| Time | 2026-05-09 00:51 |
|---|---|
| Airport | John Glenn Columbus International Airport (KCMH) |
Arrival
| Time | N/A |
|---|---|
| Airport | The Ohio State University Airport - Don Scott Field (KOSU) |
| Time | Latitude | Longitude | Altitude | Speed | Heading |
|---|---|---|---|---|---|
| 2026-05-09 00:51 | 40.00531 | -82.99303 | 2986 ft | 203 kts | 287° |
| 2026-05-09 00:51 | 40.01234 | -83.00954 | 2992 ft | 214 kts | 301° |
| 2026-05-09 00:52 | 40.01984 | -83.02620 | 2998 ft | 212 kts | 284° |
| 2026-05-09 00:52 | 40.02613 | -83.04401 | 2989 ft | 219 kts | 300° |
| 2026-05-09 00:52 | 40.03514 | -83.05988 | 2988 ft | 220 kts | 302° |
| 2026-05-09 00:52 | 40.04507 | -83.07529 | 2984 ft | 223 kts | 313° |
| 2026-05-09 00:53 | 40.05768 | -83.08754 | 2995 ft | 223 kts | 311° |
| 2026-05-09 00:53 | 40.06301 | -83.10506 | 3014 ft | 208 kts | 266° |
| 2026-05-09 00:53 | 40.06099 | -83.12382 | 2995 ft | 209 kts | 256° |
| 2026-05-09 00:53 | 40.05857 | -83.14256 | 2978 ft | 210 kts | 263° |
| 2026-05-09 00:54 | 40.06310 | -83.16047 | 2979 ft | 220 kts | 306° |
| 2026-05-09 00:54 | 40.07664 | -83.17022 | 2975 ft | 234 kts | 342° |
| 2026-05-09 00:54 | 40.09284 | -83.16770 | 2972 ft | 246 kts | 22° |
| 2026-05-09 00:54 | 40.10479 | -83.15173 | 2977 ft | 250 kts | 63° |
| 2026-05-09 00:55 | 40.10715 | -83.12969 | 2986 ft | 247 kts | 96° |
| 2026-05-09 00:55 | 40.10469 | -83.10751 | 2989 ft | 247 kts | 100° |
| 2026-05-09 00:55 | 40.10182 | -83.08525 | 2996 ft | 247 kts | 101° |
| 2026-05-09 00:55 | 40.09984 | -83.06518 | 2496 ft | 212 kts | 96° |
| 2026-05-09 00:56 | 40.09929 | -83.04742 | 1918 ft | 185 kts | 96° |
| 2026-05-09 00:56 | 40.09273 | -83.03595 | 1800 ft | 153 kts | 164° |
| 2026-05-09 00:56 | 40.08355 | -83.03756 | 1624 ft | 132 kts | 229° |
| 2026-05-09 00:56 | 40.07905 | -83.04835 | 1294 ft | 138 kts | 255° |
| 2026-05-09 00:57 | 40.07795 | -83.06076 | 961 ft | 130 kts | 265° |
| 2026-05-09 00:57 | 40.07752 | -83.07057 | 897 ft | 94 kts | 264° |
| 2026-05-09 00:57 | 40.07732 | -83.07913 | 924 ft | 96 kts | 268° |
| 2026-05-09 00:57 | 40.07747 | -83.08796 | 1062 ft | 99 kts | 268° |
| 2026-05-09 00:58 | 40.07549 | -83.09682 | 1114 ft | 108 kts | 248° |
| 2026-05-09 00:58 | 40.07241 | -83.10555 | 1355 ft | 102 kts | 244° |